createdAt,value
2019-03-20T00:00:10.477Z,1025.58
2019-03-20T00:01:10.490Z,1025.56
2019-03-20T00:02:10.505Z,1025.56
2019-03-20T00:03:10.516Z,1025.54
2019-03-20T00:04:10.529Z,1025.53
2019-03-20T00:05:10.542Z,1025.54
2019-03-20T00:06:10.555Z,1025.55
2019-03-20T00:07:10.569Z,1025.54
2019-03-20T00:08:10.582Z,1025.56
2019-03-20T00:09:10.596Z,1025.58
2019-03-20T00:10:10.607Z,1025.54
2019-03-20T00:12:10.635Z,1025.51
2019-03-20T00:13:10.647Z,1025.58
2019-03-20T00:14:10.660Z,1025.58
2019-03-20T00:15:10.673Z,1025.63
2019-03-20T00:16:10.687Z,1025.65
2019-03-20T00:17:10.698Z,1025.68
2019-03-20T00:18:10.712Z,1025.63
2019-03-20T00:19:10.726Z,1025.68
2019-03-20T00:20:10.739Z,1025.61
2019-03-20T00:21:10.762Z,1025.58
2019-03-20T00:22:10.765Z,1025.6
2019-03-20T00:23:10.777Z,1025.6
2019-03-20T00:24:10.791Z,1025.63
2019-03-20T00:25:10.806Z,1025.64
2019-03-20T00:27:10.831Z,1025.62
2019-03-20T00:28:10.846Z,1025.68
2019-03-20T00:29:10.856Z,1025.66
2019-03-20T00:30:10.873Z,1025.63
2019-03-20T00:31:10.883Z,1025.67
2019-03-20T00:32:10.895Z,1025.64
2019-03-20T00:33:10.908Z,1025.63
2019-03-20T00:34:10.922Z,1025.66
2019-03-20T00:35:10.935Z,1025.65
2019-03-20T00:36:10.947Z,1025.63
2019-03-20T00:37:10.960Z,1025.7
2019-03-20T00:38:10.973Z,1025.67
2019-03-20T00:39:10.985Z,1025.68
2019-03-20T00:40:11.002Z,1025.66
2019-03-20T00:41:11.012Z,1025.65
2019-03-20T00:42:11.025Z,1025.66
2019-03-20T00:43:11.038Z,1025.65
2019-03-20T00:44:11.052Z,1025.73
2019-03-20T00:45:11.063Z,1025.73
2019-03-20T00:46:11.075Z,1025.7
2019-03-20T00:47:11.090Z,1025.74
2019-03-20T00:48:11.104Z,1025.69
2019-03-20T00:49:11.116Z,1025.73
2019-03-20T00:50:11.128Z,1025.72
2019-03-20T00:51:11.141Z,1025.74
2019-03-20T00:52:11.154Z,1025.74
2019-03-20T00:53:11.166Z,1025.7
2019-03-20T00:54:11.178Z,1025.73
2019-03-20T00:55:11.191Z,1025.7
2019-03-20T00:56:11.205Z,1025.67
2019-03-20T00:57:11.216Z,1025.73
2019-03-20T00:59:11.243Z,1025.72
2019-03-20T01:00:11.256Z,1025.72
2019-03-20T01:01:11.270Z,1025.78
2019-03-20T01:02:11.285Z,1025.72
2019-03-20T01:03:11.294Z,1025.8
2019-03-20T01:04:11.307Z,1025.73
2019-03-20T01:05:12.632Z,1025.72
2019-03-20T01:06:11.333Z,1025.76
2019-03-20T01:07:11.345Z,1025.79
2019-03-20T01:08:11.357Z,1025.82
2019-03-20T01:09:11.370Z,1025.82
2019-03-20T01:10:11.384Z,1025.86
2019-03-20T01:11:11.396Z,1025.76
2019-03-20T01:12:11.407Z,1025.77
2019-03-20T01:13:11.422Z,1025.79
2019-03-20T01:15:11.446Z,1025.82
2019-03-20T01:16:11.459Z,1025.83
2019-03-20T01:17:11.471Z,1025.82
2019-03-20T01:18:11.484Z,1025.81
2019-03-20T01:19:11.496Z,1025.81
2019-03-20T01:20:11.508Z,1025.78
2019-03-20T01:21:11.524Z,1025.81
2019-03-20T01:22:11.535Z,1025.82
2019-03-20T01:23:11.546Z,1025.82
2019-03-20T01:24:11.559Z,1025.82
2019-03-20T01:25:11.572Z,1025.85
2019-03-20T01:26:11.587Z,1025.79
2019-03-20T01:27:11.597Z,1025.78
2019-03-20T01:28:11.610Z,1025.79
2019-03-20T01:29:11.622Z,1025.79
2019-03-20T01:31:11.647Z,1025.8
2019-03-20T01:32:11.660Z,1025.8
2019-03-20T01:33:11.672Z,1025.77
2019-03-20T01:34:11.686Z,1025.76
2019-03-20T01:35:11.697Z,1025.76
2019-03-20T01:36:11.710Z,1025.73
2019-03-20T01:37:11.723Z,1025.71
2019-03-20T01:38:11.754Z,1025.72
2019-03-20T01:39:11.747Z,1025.72
2019-03-20T01:40:11.760Z,1025.72
2019-03-20T01:41:11.774Z,1025.72
2019-03-20T01:42:11.785Z,1025.82
2019-03-20T01:43:11.798Z,1025.8
2019-03-20T01:44:11.810Z,1025.81
2019-03-20T01:45:11.910Z,1025.8
2019-03-20T01:47:11.850Z,1025.81
2019-03-20T01:48:11.864Z,1025.78
2019-03-20T01:49:11.872Z,1025.78
2019-03-20T01:50:11.884Z,1025.79
2019-03-20T01:51:11.898Z,1025.84
2019-03-20T01:52:11.909Z,1025.83
2019-03-20T01:53:11.922Z,1025.79
2019-03-20T01:54:11.934Z,1025.8
2019-03-20T01:55:11.947Z,1025.83
2019-03-20T01:56:11.959Z,1025.77
2019-03-20T01:57:11.971Z,1025.81
2019-03-20T01:58:11.984Z,1025.84
2019-03-20T01:59:11.997Z,1025.85
2019-03-20T02:00:12.010Z,1025.81
2019-03-20T02:02:12.035Z,1025.86
2019-03-20T02:03:12.048Z,1025.8
2019-03-20T02:04:12.059Z,1025.84
2019-03-20T02:05:12.071Z,1025.84
2019-03-20T02:06:12.084Z,1025.83
2019-03-20T02:07:12.096Z,1025.85
2019-03-20T02:08:12.108Z,1025.86
2019-03-20T02:09:12.121Z,1025.85
2019-03-20T02:10:12.133Z,1025.86
2019-03-20T02:11:12.145Z,1025.87
2019-03-20T02:12:12.158Z,1025.79
2019-03-20T02:13:12.172Z,1025.86
2019-03-20T02:14:12.184Z,1025.82
2019-03-20T02:15:12.199Z,1025.85
2019-03-20T02:16:12.211Z,1025.88
2019-03-20T02:17:12.224Z,1025.88
2019-03-20T02:18:12.235Z,1025.94
2019-03-20T02:19:12.247Z,1025.93
2019-03-20T02:20:12.260Z,1025.95
2019-03-20T02:21:12.271Z,1025.96
2019-03-20T02:22:12.284Z,1025.95
2019-03-20T02:23:12.296Z,1025.97
2019-03-20T02:24:12.309Z,1025.99
2019-03-20T02:25:12.321Z,1026
2019-03-20T02:26:12.333Z,1026.04
2019-03-20T02:27:12.346Z,1025.98
2019-03-20T02:28:12.358Z,1026
2019-03-20T02:29:12.369Z,1026.04
2019-03-20T02:30:12.383Z,1026.01
2019-03-20T02:31:12.408Z,1026.05
2019-03-20T02:32:12.407Z,1026.02
2019-03-20T02:34:12.438Z,1026.02
2019-03-20T02:35:12.448Z,1026.03
2019-03-20T02:36:12.456Z,1026.06
2019-03-20T02:37:12.468Z,1026.04
2019-03-20T02:38:12.482Z,1026.03
2019-03-20T02:39:12.493Z,1026.06
2019-03-20T02:40:12.505Z,1026.04
2019-03-20T02:41:12.521Z,1026.01
2019-03-20T02:42:12.530Z,1025.99
2019-03-20T02:43:12.600Z,1025.95
2019-03-20T02:44:12.553Z,1025.97
2019-03-20T02:45:12.571Z,1025.99
2019-03-20T02:46:12.580Z,1025.97
2019-03-20T02:47:12.591Z,1025.95
2019-03-20T02:48:12.601Z,1025.98
2019-03-20T02:50:12.662Z,1025.97
2019-03-20T02:51:12.637Z,1025.96
2019-03-20T02:52:12.651Z,1025.96
2019-03-20T02:53:12.662Z,1025.95
2019-03-20T02:54:12.676Z,1025.9
2019-03-20T02:55:12.691Z,1025.91
2019-03-20T02:56:12.704Z,1025.91
2019-03-20T02:57:12.711Z,1025.94
2019-03-20T02:58:12.728Z,1025.97
2019-03-20T02:59:12.735Z,1025.96
2019-03-20T03:00:12.754Z,1025.96
2019-03-20T03:01:12.760Z,1025.97
2019-03-20T03:02:12.772Z,1026
2019-03-20T03:03:12.783Z,1026.01
2019-03-20T03:04:12.795Z,1026.06
2019-03-20T03:06:12.820Z,1026.07
2019-03-20T03:07:12.831Z,1026.03
2019-03-20T03:08:12.845Z,1026.05
2019-03-20T03:09:12.855Z,1026.06
2019-03-20T03:10:12.866Z,1026.09
2019-03-20T03:11:12.880Z,1026.09
2019-03-20T03:12:12.892Z,1026.1
2019-03-20T03:13:12.903Z,1026.11
2019-03-20T03:14:12.921Z,1026.11
2019-03-20T03:15:12.934Z,1026.12
2019-03-20T03:16:12.939Z,1026.12
2019-03-20T03:17:12.954Z,1026.09
2019-03-20T03:18:12.964Z,1026.11
2019-03-20T03:19:12.975Z,1026.09
2019-03-20T03:20:12.996Z,1026.11
2019-03-20T03:22:13.012Z,1026.09
2019-03-20T03:23:13.024Z,1026.1
2019-03-20T03:24:13.035Z,1026.13
2019-03-20T03:25:13.048Z,1026.12
2019-03-20T03:26:13.060Z,1026.13
2019-03-20T03:27:13.071Z,1026.13
2019-03-20T03:28:13.083Z,1026.18
2019-03-20T03:29:13.096Z,1026.14
2019-03-20T03:30:13.111Z,1026.13
2019-03-20T03:31:13.120Z,1026.17
2019-03-20T03:32:13.132Z,1026.15
2019-03-20T03:33:13.159Z,1026.18
2019-03-20T03:34:13.170Z,1026.2
2019-03-20T03:35:16.577Z,1026.21
2019-03-20T03:37:13.199Z,1026.18
2019-03-20T03:38:13.205Z,1026.14
2019-03-20T03:39:13.216Z,1026.14
2019-03-20T03:40:13.228Z,1026.11
2019-03-20T03:41:13.241Z,1026.21
2019-03-20T03:42:13.253Z,1026.18
2019-03-20T03:43:13.268Z,1026.22
2019-03-20T03:44:13.285Z,1026.22
2019-03-20T03:45:13.296Z,1026.19
2019-03-20T03:46:13.322Z,1026.2
2019-03-20T03:47:13.317Z,1026.22
2019-03-20T03:48:13.324Z,1026.21
2019-03-20T03:49:13.345Z,1026.25
2019-03-20T03:50:13.366Z,1026.23
2019-03-20T03:51:13.359Z,1026.25
2019-03-20T03:52:13.378Z,1026.26
2019-03-20T03:53:13.387Z,1026.26
2019-03-20T03:54:13.397Z,1026.26
2019-03-20T03:55:13.412Z,1026.29
2019-03-20T03:56:13.417Z,1026.28
2019-03-20T03:57:13.431Z,1026.27
2019-03-20T03:58:13.442Z,1026.3
2019-03-20T03:59:13.455Z,1026.3
2019-03-20T04:00:13.467Z,1026.28
2019-03-20T04:01:13.473Z,1026.32
2019-03-20T04:02:13.491Z,1026.3
2019-03-20T04:03:13.502Z,1026.32
2019-03-20T04:04:13.512Z,1026.31
2019-03-20T04:05:13.523Z,1026.33
2019-03-20T04:06:13.531Z,1026.31
2019-03-20T04:07:13.547Z,1026.31
2019-03-20T04:09:13.567Z,1026.3
2019-03-20T04:10:13.583Z,1026.32
2019-03-20T04:11:13.590Z,1026.27
2019-03-20T04:12:13.607Z,1026.32
2019-03-20T04:13:13.619Z,1026.32
2019-03-20T04:14:13.630Z,1026.33
2019-03-20T04:15:13.643Z,1026.38
2019-03-20T04:16:13.654Z,1026.36
2019-03-20T04:17:13.662Z,1026.39
2019-03-20T04:18:13.673Z,1026.43
2019-03-20T04:19:13.689Z,1026.41
2019-03-20T04:20:13.699Z,1026.41
2019-03-20T04:21:13.713Z,1026.44
2019-03-20T04:22:13.720Z,1026.46
2019-03-20T04:23:13.740Z,1026.45
2019-03-20T04:25:13.765Z,1026.53
2019-03-20T04:26:13.772Z,1026.54
2019-03-20T04:27:13.783Z,1026.56
2019-03-20T04:28:13.795Z,1026.56
2019-03-20T04:29:13.802Z,1026.53
2019-03-20T04:30:13.817Z,1026.54
2019-03-20T04:31:13.830Z,1026.54
2019-03-20T04:32:13.837Z,1026.52
2019-03-20T04:33:13.854Z,1026.49
2019-03-20T04:34:13.860Z,1026.52
2019-03-20T04:35:13.874Z,1026.56
2019-03-20T04:36:13.890Z,1026.54
2019-03-20T04:37:13.895Z,1026.51
2019-03-20T04:38:13.911Z,1026.5
2019-03-20T04:39:13.923Z,1026.48
2019-03-20T04:41:13.942Z,1026.52
2019-03-20T04:42:13.954Z,1026.53
2019-03-20T04:43:13.972Z,1026.52
2019-03-20T04:44:13.981Z,1026.52
2019-03-20T04:45:13.993Z,1026.52
2019-03-20T04:46:14.004Z,1026.54
2019-03-20T04:47:14.016Z,1026.52
2019-03-20T04:48:14.024Z,1026.52
2019-03-20T04:49:14.041Z,1026.53
2019-03-20T04:50:14.054Z,1026.53
2019-03-20T04:51:14.062Z,1026.55
2019-03-20T04:52:14.070Z,1026.55
2019-03-20T04:53:14.081Z,1026.56
2019-03-20T04:54:14.097Z,1026.55
2019-03-20T04:55:14.104Z,1026.55
2019-03-20T04:57:14.128Z,1026.51
2019-03-20T04:58:14.145Z,1026.53
2019-03-20T04:59:14.151Z,1026.52
2019-03-20T05:00:14.168Z,1026.51
2019-03-20T05:01:14.175Z,1026.5
2019-03-20T05:02:14.186Z,1026.54
2019-03-20T05:03:14.199Z,1026.59
2019-03-20T05:04:14.214Z,1026.63
2019-03-20T05:05:14.222Z,1026.64
2019-03-20T05:06:14.239Z,1026.63
2019-03-20T05:07:14.248Z,1026.65
2019-03-20T05:08:14.261Z,1026.61
2019-03-20T05:09:14.268Z,1026.64
2019-03-20T05:10:14.292Z,1026.64
2019-03-20T05:12:14.304Z,1026.62
2019-03-20T05:13:14.319Z,1026.66
2019-03-20T05:14:14.328Z,1026.67
2019-03-20T05:15:14.353Z,1026.65
2019-03-20T05:16:14.353Z,1026.65
2019-03-20T05:17:14.362Z,1026.65
2019-03-20T05:18:14.378Z,1026.68
2019-03-20T05:19:14.390Z,1026.67
2019-03-20T05:20:14.401Z,1026.68
2019-03-20T05:21:14.409Z,1026.65
2019-03-20T05:22:14.425Z,1026.7
2019-03-20T05:23:14.433Z,1026.69
2019-03-20T05:24:14.443Z,1026.69
2019-03-20T05:25:14.461Z,1026.69
2019-03-20T05:26:14.471Z,1026.73
2019-03-20T05:27:14.479Z,1026.76
2019-03-20T05:28:14.494Z,1026.8
2019-03-20T05:29:14.502Z,1026.8
2019-03-20T05:30:14.518Z,1026.79
2019-03-20T05:31:14.527Z,1026.82
2019-03-20T05:32:14.542Z,1026.83
2019-03-20T05:33:14.550Z,1026.85
2019-03-20T05:34:14.565Z,1026.86
2019-03-20T05:35:14.573Z,1026.91
2019-03-20T05:36:14.588Z,1026.82
2019-03-20T05:37:14.600Z,1026.85
2019-03-20T05:38:14.609Z,1026.88
2019-03-20T05:39:15.815Z,1026.88
2019-03-20T05:40:14.631Z,1026.92
2019-03-20T05:41:14.648Z,1026.89
2019-03-20T05:42:14.655Z,1026.94
2019-03-20T05:44:14.683Z,1027.16
2019-03-20T05:45:14.693Z,1027.18
2019-03-20T05:46:14.706Z,1027.19
2019-03-20T05:47:14.716Z,1027.21
2019-03-20T05:48:14.737Z,1027.24
2019-03-20T05:49:14.744Z,1027.26
2019-03-20T05:50:14.765Z,1027.24
2019-03-20T05:51:14.769Z,1027.3
2019-03-20T05:52:14.787Z,1027.32
2019-03-20T05:53:14.797Z,1027.37
2019-03-20T05:54:14.812Z,1027.31
2019-03-20T05:55:14.837Z,1027.2
2019-03-20T05:56:14.842Z,1027.28
2019-03-20T05:57:14.855Z,1027.23
2019-03-20T05:58:14.875Z,1027.24
2019-03-20T06:00:14.907Z,1027.18
2019-03-20T06:01:14.923Z,1027.16
2019-03-20T06:02:14.937Z,1027.12
2019-03-20T06:03:14.949Z,1027.14
2019-03-20T06:04:14.965Z,1027.16
2019-03-20T06:05:14.987Z,1027.12
2019-03-20T06:06:14.999Z,1027.08
2019-03-20T06:07:21.317Z,1027.04
2019-03-20T06:08:15.034Z,1026.95
2019-03-20T06:09:15.066Z,1026.91
2019-03-20T06:10:15.073Z,1026.94
2019-03-20T06:11:15.088Z,1026.97
2019-03-20T06:12:15.113Z,1026.88
2019-03-20T06:13:15.130Z,1026.81
2019-03-20T06:14:15.150Z,1026.79
2019-03-20T06:16:15.189Z,1026.8
2019-03-20T06:17:15.205Z,1026.84
2019-03-20T06:18:15.230Z,1026.86
2019-03-20T06:19:15.247Z,1026.83
2019-03-20T06:20:15.272Z,1026.82
2019-03-20T06:21:15.349Z,1026.83
2019-03-20T06:22:15.312Z,1026.83
2019-03-20T06:23:15.337Z,1026.92
2019-03-20T06:24:15.359Z,1026.97
2019-03-20T06:25:15.382Z,1026.97
2019-03-20T06:26:15.400Z,1027.01
2019-03-20T06:27:15.423Z,1027.01
2019-03-20T06:28:15.450Z,1027.08
2019-03-20T06:29:15.470Z,1027.17
2019-03-20T06:30:15.496Z,1027.21
2019-03-20T06:32:15.540Z,1027.28
2019-03-20T06:33:15.568Z,1027.36
2019-03-20T06:34:15.590Z,1027.48
2019-03-20T06:35:15.615Z,1027.49
2019-03-20T06:36:15.638Z,1027.53
2019-03-20T06:37:15.665Z,1027.57
2019-03-20T06:38:15.686Z,1027.63
2019-03-20T06:39:15.712Z,1027.74
2019-03-20T06:40:15.738Z,1027.78
2019-03-20T06:41:15.757Z,1027.84
2019-03-20T06:42:15.786Z,1027.92
2019-03-20T06:43:15.808Z,1028
2019-03-20T06:44:15.837Z,1028.05
2019-03-20T06:45:15.868Z,1028.08
2019-03-20T06:47:15.909Z,1028.18
2019-03-20T06:48:15.940Z,1028.26
2019-03-20T06:49:15.964Z,1028.28
2019-03-20T06:50:15.986Z,1028.27
2019-03-20T06:51:16.012Z,1028.3
2019-03-20T06:52:16.041Z,1028.35
2019-03-20T06:53:16.064Z,1028.39
2019-03-20T06:54:16.093Z,1028.45
2019-03-20T06:55:16.115Z,1028.48
2019-03-20T06:56:16.146Z,1028.53
2019-03-20T06:57:16.169Z,1028.52
2019-03-20T06:58:16.195Z,1028.56
2019-03-20T06:59:16.225Z,1028.54
2019-03-20T07:00:16.248Z,1028.61
2019-03-20T07:01:16.281Z,1028.62
2019-03-20T07:02:16.306Z,1028.67
2019-03-20T07:03:16.330Z,1028.7
2019-03-20T07:04:16.360Z,1028.71
2019-03-20T07:05:16.382Z,1028.69
2019-03-20T07:06:16.412Z,1028.7
2019-03-20T07:07:16.436Z,1028.71
2019-03-20T07:08:16.470Z,1028.77
2019-03-20T07:09:16.495Z,1028.74
2019-03-20T07:10:16.517Z,1028.78
2019-03-20T07:11:16.547Z,1028.79
2019-03-20T07:12:16.572Z,1028.81
2019-03-20T07:13:16.603Z,1028.84
2019-03-20T07:14:16.626Z,1028.84
2019-03-20T07:15:16.659Z,1028.82
2019-03-20T07:16:16.686Z,1028.8
2019-03-20T07:17:16.709Z,1028.84
2019-03-20T07:19:16.771Z,1028.82
2019-03-20T07:20:16.792Z,1028.84
2019-03-20T07:21:18.705Z,1028.81
2019-03-20T07:22:16.847Z,1028.81
2019-03-20T07:23:16.882Z,1028.82
2019-03-20T07:24:16.903Z,1028.86
2019-03-20T07:25:16.934Z,1028.85
2019-03-20T07:26:16.962Z,1028.87
2019-03-20T07:27:16.987Z,1028.87
2019-03-20T07:28:17.013Z,1028.8
2019-03-20T07:29:17.041Z,1028.77
2019-03-20T07:30:17.074Z,1028.72
2019-03-20T07:31:17.098Z,1028.75
2019-03-20T07:32:17.129Z,1028.71
2019-03-20T07:33:17.157Z,1028.73
2019-03-20T07:35:17.213Z,1028.68
2019-03-20T07:36:17.236Z,1028.64
2019-03-20T07:37:17.263Z,1028.68
2019-03-20T07:38:17.293Z,1028.69
2019-03-20T07:39:17.323Z,1028.7
2019-03-20T07:40:17.352Z,1028.65
2019-03-20T07:41:17.376Z,1028.66
2019-03-20T07:42:17.406Z,1028.64
2019-03-20T07:43:17.439Z,1028.6
2019-03-20T07:44:17.460Z,1028.56
2019-03-20T07:45:17.484Z,1028.52
2019-03-20T07:46:17.512Z,1028.43
2019-03-20T07:47:17.538Z,1028.45
2019-03-20T07:48:21.821Z,1028.42
2019-03-20T07:49:17.598Z,1028.41
2019-03-20T07:51:17.651Z,1028.35
2019-03-20T07:52:17.675Z,1028.32
2019-03-20T07:53:17.702Z,1028.26
2019-03-20T07:54:17.728Z,1028.32
2019-03-20T07:55:17.760Z,1028.27
2019-03-20T07:56:17.783Z,1028.26
2019-03-20T07:57:17.815Z,1028.26
2019-03-20T07:58:17.836Z,1028.26
2019-03-20T07:59:17.870Z,1028.28
2019-03-20T08:00:17.892Z,1028.26
2019-03-20T08:01:20.235Z,1028.27
2019-03-20T08:02:17.943Z,1028.25
2019-03-20T08:03:17.970Z,1028.3
2019-03-20T08:04:18.001Z,1028.29
2019-03-20T08:05:28.401Z,1028.32
2019-03-20T08:07:18.077Z,1028.29
2019-03-20T08:08:18.104Z,1028.29
2019-03-20T08:09:18.170Z,1028.27
2019-03-20T08:10:18.212Z,1028.26
2019-03-20T08:11:18.186Z,1028.28
2019-03-20T08:12:18.212Z,1028.24
2019-03-20T08:13:18.234Z,1028.26
2019-03-20T08:14:18.268Z,1028.28
2019-03-20T08:15:18.291Z,1028.28
2019-03-20T08:16:18.316Z,1028.26
2019-03-20T08:17:18.339Z,1028.26
2019-03-20T08:18:18.370Z,1028.24
2019-03-20T08:19:18.495Z,1028.2
2019-03-20T08:20:18.417Z,1028.22
2019-03-20T08:22:18.470Z,1028.25
2019-03-20T08:23:18.499Z,1028.22
2019-03-20T08:24:18.521Z,1028.25
2019-03-20T08:25:18.552Z,1028.23
2019-03-20T08:26:18.577Z,1028.24
2019-03-20T08:27:18.598Z,1028.2
2019-03-20T08:28:18.623Z,1028.23
2019-03-20T08:29:18.654Z,1028.21
2019-03-20T08:30:18.679Z,1028.28
2019-03-20T08:31:18.713Z,1028.25
2019-03-20T08:32:18.730Z,1028.27
2019-03-20T08:33:18.759Z,1028.23
2019-03-20T08:34:18.777Z,1028.22
2019-03-20T08:35:18.807Z,1028.26
2019-03-20T08:36:18.829Z,1028.26
2019-03-20T08:37:18.863Z,1028.23
2019-03-20T08:38:19.061Z,1028.25
2019-03-20T08:39:18.909Z,1028.25
2019-03-20T08:40:18.935Z,1028.26
2019-03-20T08:41:18.960Z,1028.35
2019-03-20T08:42:18.984Z,1028.31
2019-03-20T08:43:19.011Z,1028.29
2019-03-20T08:44:19.032Z,1028.29
2019-03-20T08:45:19.066Z,1028.29
2019-03-20T08:46:19.085Z,1028.31
2019-03-20T08:47:19.113Z,1028.31
2019-03-20T08:48:19.132Z,1028.3
2019-03-20T08:49:19.162Z,1028.29
2019-03-20T08:50:19.185Z,1028.28
2019-03-20T08:51:19.209Z,1028.29
2019-03-20T08:52:19.238Z,1028.26
2019-03-20T08:54:19.289Z,1028.22
2019-03-20T08:55:19.309Z,1028.23
2019-03-20T08:56:19.337Z,1028.31
2019-03-20T08:57:19.359Z,1028.3
2019-03-20T08:58:19.390Z,1028.31
2019-03-20T08:59:19.410Z,1028.25
2019-03-20T09:00:19.438Z,1028.25
2019-03-20T09:01:28.034Z,1028.3
2019-03-20T09:02:19.484Z,1028.24
2019-03-20T09:03:19.508Z,1028.27
2019-03-20T09:04:19.538Z,1028.22
2019-03-20T09:05:19.559Z,1028.27
2019-03-20T09:06:19.588Z,1028.3
2019-03-20T09:07:19.610Z,1028.29
2019-03-20T09:08:28.698Z,1028.34
2019-03-20T09:10:19.689Z,1028.3
2019-03-20T09:11:19.713Z,1028.34
2019-03-20T09:12:19.734Z,1028.33
2019-03-20T09:13:19.763Z,1028.35
2019-03-20T09:14:19.785Z,1028.39
2019-03-20T09:15:19.808Z,1028.42
2019-03-20T09:16:19.935Z,1028.47
2019-03-20T09:17:19.865Z,1028.46
2019-03-20T09:18:19.887Z,1028.44
2019-03-20T09:19:19.908Z,1028.49
2019-03-20T09:20:19.938Z,1028.48
2019-03-20T09:21:19.959Z,1028.49
2019-03-20T09:22:19.987Z,1028.49
2019-03-20T09:23:20.008Z,1028.47
2019-03-20T09:24:20.037Z,1028.45
2019-03-20T09:26:20.082Z,1028.46
2019-03-20T09:27:20.112Z,1028.43
2019-03-20T09:28:20.132Z,1028.42
2019-03-20T09:29:20.160Z,1028.43
2019-03-20T09:30:20.182Z,1028.46
2019-03-20T09:31:20.211Z,1028.46
2019-03-20T09:32:20.236Z,1028.47
2019-03-20T09:33:20.257Z,1028.51
2019-03-20T09:34:20.286Z,1028.46
2019-03-20T09:35:20.311Z,1028.47
2019-03-20T09:36:20.339Z,1028.46
2019-03-20T09:37:20.355Z,1028.47
2019-03-20T09:38:20.384Z,1028.43
2019-03-20T09:39:20.411Z,1028.49
2019-03-20T09:40:20.431Z,1028.45
2019-03-20T09:42:20.480Z,1028.42
2019-03-20T09:43:20.512Z,1028.45
2019-03-20T09:44:20.529Z,1028.42
2019-03-20T09:45:20.554Z,1028.43
2019-03-20T09:46:20.584Z,1028.45
2019-03-20T09:47:20.603Z,1028.47
2019-03-20T09:48:20.633Z,1028.45
2019-03-20T09:49:20.653Z,1028.48
2019-03-20T09:50:20.683Z,1028.47
2019-03-20T09:51:20.703Z,1028.45
2019-03-20T09:52:20.728Z,1028.41
2019-03-20T09:53:20.752Z,1028.45
2019-03-20T09:54:20.782Z,1028.42
2019-03-20T09:55:20.806Z,1028.49
2019-03-20T09:57:20.856Z,1028.34
2019-03-20T09:58:20.876Z,1028.36
2019-03-20T09:59:20.903Z,1028.37
2019-03-20T10:00:20.930Z,1028.36
2019-03-20T10:01:20.951Z,1028.33
2019-03-20T10:02:20.975Z,1028.39
2019-03-20T10:03:21.000Z,1028.34
2019-03-20T10:04:21.029Z,1028.38
2019-03-20T10:05:21.052Z,1028.29
2019-03-20T10:06:21.072Z,1028.37
2019-03-20T10:07:21.101Z,1028.31
2019-03-20T10:08:21.122Z,1028.33
2019-03-20T10:09:21.148Z,1028.29
2019-03-20T10:10:21.173Z,1028.29
2019-03-20T10:11:21.199Z,1028.3
2019-03-20T10:12:21.220Z,1028.29
2019-03-20T10:13:21.248Z,1028.27
2019-03-20T10:14:21.272Z,1028.26
2019-03-20T10:15:21.296Z,1028.24
2019-03-20T10:16:21.316Z,1028.2
2019-03-20T10:17:21.358Z,1028.21
2019-03-20T10:18:21.365Z,1028.12
2019-03-20T10:19:21.394Z,1028.13
2019-03-20T10:20:21.415Z,1028.14
2019-03-20T10:21:21.442Z,1028.18
2019-03-20T10:22:21.462Z,1028.18
2019-03-20T10:23:21.490Z,1028.12
2019-03-20T10:24:21.510Z,1028.1
2019-03-20T10:25:21.537Z,1028.14
2019-03-20T10:26:21.562Z,1028.13
2019-03-20T10:27:21.581Z,1028.09
2019-03-20T10:29:21.632Z,1028.12
2019-03-20T10:30:21.652Z,1028.04
2019-03-20T10:31:21.680Z,1028.08
2019-03-20T10:32:21.700Z,1028.06
2019-03-20T10:33:21.735Z,1028.04
2019-03-20T10:34:21.749Z,1028.03
2019-03-20T10:35:21.772Z,1028
2019-03-20T10:36:21.799Z,1027.99
2019-03-20T10:37:21.823Z,1028
2019-03-20T10:38:21.845Z,1028.02
2019-03-20T10:39:21.865Z,1027.96
2019-03-20T10:40:21.893Z,1028.02
2019-03-20T10:41:21.912Z,1027.98
2019-03-20T10:42:21.935Z,1027.96
2019-03-20T10:43:21.962Z,1028
2019-03-20T10:45:22.010Z,1028.09
2019-03-20T10:46:22.028Z,1028.05
2019-03-20T10:47:22.065Z,1028.07
2019-03-20T10:48:22.074Z,1027.99
2019-03-20T10:49:22.101Z,1028.04
2019-03-20T10:50:22.213Z,1028.09
2019-03-20T10:51:22.147Z,1028.09
2019-03-20T10:52:22.174Z,1028.14
2019-03-20T10:53:22.189Z,1028.14
2019-03-20T10:54:22.215Z,1028.22
2019-03-20T10:55:22.238Z,1028.22
2019-03-20T10:56:22.257Z,1028.14
2019-03-20T10:57:22.279Z,1028.14
2019-03-20T10:58:22.303Z,1028.16
2019-03-20T10:59:22.331Z,1028.16
2019-03-20T11:01:22.440Z,1028.08
2019-03-20T11:02:22.395Z,1028.09
2019-03-20T11:03:22.415Z,1028.06
2019-03-20T11:04:22.440Z,1028.14
2019-03-20T11:05:22.459Z,1028.07
2019-03-20T11:06:22.487Z,1028.1
2019-03-20T11:07:22.504Z,1028.03
2019-03-20T11:08:22.529Z,1028.06
2019-03-20T11:09:22.551Z,1028.07
2019-03-20T11:10:22.575Z,1028
2019-03-20T11:11:26.812Z,1028.07
2019-03-20T11:12:22.618Z,1028.05
2019-03-20T11:13:22.641Z,1028.04
2019-03-20T11:14:22.663Z,1028.06
2019-03-20T11:15:22.686Z,1028.06
2019-03-20T11:17:22.729Z,1028
2019-03-20T11:18:22.747Z,1028
2019-03-20T11:19:22.777Z,1028.08
2019-03-20T11:20:22.801Z,1027.98
2019-03-20T11:21:22.813Z,1027.98
2019-03-20T11:22:22.834Z,1028.01
2019-03-20T11:23:22.860Z,1028
2019-03-20T11:24:22.878Z,1028.03
2019-03-20T11:25:22.906Z,1028
2019-03-20T11:26:22.921Z,1028
2019-03-20T11:27:22.948Z,1027.95
2019-03-20T11:28:22.966Z,1027.97
2019-03-20T11:29:22.988Z,1027.91
2019-03-20T11:30:23.014Z,1027.94
2019-03-20T11:32:23.058Z,1027.94
2019-03-20T11:33:23.078Z,1027.92
2019-03-20T11:34:23.108Z,1027.97
2019-03-20T11:35:23.119Z,1027.93
2019-03-20T11:36:23.145Z,1027.86
2019-03-20T11:37:23.167Z,1027.85
2019-03-20T11:38:23.190Z,1027.88
2019-03-20T11:39:29.423Z,1027.93
2019-03-20T11:40:23.228Z,1027.89
2019-03-20T11:41:23.254Z,1027.91
2019-03-20T11:42:23.278Z,1027.96
2019-03-20T11:43:23.300Z,1027.92
2019-03-20T11:44:23.316Z,1027.89
2019-03-20T11:45:23.753Z,1027.9
2019-03-20T11:46:23.360Z,1027.86
2019-03-20T11:47:23.382Z,1027.9
2019-03-20T11:48:23.407Z,1027.86
2019-03-20T11:49:23.429Z,1027.87
2019-03-20T11:50:23.448Z,1027.84
2019-03-20T11:51:23.468Z,1027.8
2019-03-20T11:52:23.491Z,1027.83
2019-03-20T11:53:23.517Z,1027.84
2019-03-20T11:54:23.535Z,1027.82
2019-03-20T11:55:23.560Z,1027.78
2019-03-20T11:56:23.583Z,1027.81
2019-03-20T11:57:23.606Z,1027.81
2019-03-20T11:58:23.623Z,1027.81
2019-03-20T11:59:23.649Z,1027.87
2019-03-20T12:00:23.666Z,1027.82
2019-03-20T12:01:23.697Z,1027.79
2019-03-20T12:02:27.925Z,1027.78
2019-03-20T12:04:23.759Z,1027.76
2019-03-20T12:05:23.778Z,1027.74
2019-03-20T12:06:23.804Z,1027.81
2019-03-20T12:07:23.826Z,1027.82
2019-03-20T12:08:23.847Z,1027.78
2019-03-20T12:09:23.866Z,1027.79
2019-03-20T12:10:23.890Z,1027.73
2019-03-20T12:11:23.909Z,1027.77
2019-03-20T12:12:23.935Z,1027.74
2019-03-20T12:13:24.063Z,1027.77
2019-03-20T12:14:23.978Z,1027.76
2019-03-20T12:15:23.997Z,1027.76
2019-03-20T12:16:24.024Z,1027.77
2019-03-20T12:17:24.041Z,1027.8
2019-03-20T12:18:24.066Z,1027.82
2019-03-20T12:20:24.112Z,1027.75
2019-03-20T12:21:24.132Z,1027.71
2019-03-20T12:22:24.150Z,1027.67
2019-03-20T12:23:24.177Z,1027.68
2019-03-20T12:24:24.195Z,1027.65
2019-03-20T12:25:24.222Z,1027.65
2019-03-20T12:26:24.238Z,1027.71
2019-03-20T12:27:24.261Z,1027.68
2019-03-20T12:28:24.282Z,1027.65
2019-03-20T12:29:24.308Z,1027.65
2019-03-20T12:30:24.333Z,1027.69
2019-03-20T12:31:24.350Z,1027.71
2019-03-20T12:32:24.374Z,1027.69
2019-03-20T12:33:24.391Z,1027.72
2019-03-20T12:34:24.420Z,1027.69
2019-03-20T12:36:24.457Z,1027.76
2019-03-20T12:37:24.484Z,1027.73
2019-03-20T12:38:24.503Z,1027.77
2019-03-20T12:39:24.527Z,1027.75
2019-03-20T12:40:24.545Z,1027.78
2019-03-20T12:41:24.571Z,1027.7
2019-03-20T12:42:24.593Z,1027.69
2019-03-20T12:43:24.614Z,1027.68
2019-03-20T12:44:24.633Z,1027.63
2019-03-20T12:45:24.659Z,1027.68
2019-03-20T12:46:24.677Z,1027.62
2019-03-20T12:47:24.702Z,1027.56
2019-03-20T12:48:24.770Z,1027.63